Terminal Aerodrome Forecast
Issued by NWS Cleveland, OH

Home | Current Version | Previous Version | Text Only | Print | Product List | Glossary On
Versions: 1 2 3 4 5 6 7 8 9 10 11 12 13 14
801
FTUS41 KCLE 110528
TAFTOL
TAF
KTOL 110528Z 1106/1206 VRB03KT 1 1/2SM -SN OVC025
     FM111400 15009KT 3/4SM -SN OVC008
     FM111800 18008KT 1/2SM SN OVC004
     FM120000 20008KT 1 1/2SM -SN BR OVC007=

USA.gov is the U.S. government's official web portal to all federal, state and local government web resources and services.